Terminal Aerodrome Forecast
Issued by NWS Houston/Galveston, TX

Home | Current Version | Previous Version | Text Only | Print | Product List | Glossary On
Versions: 1 2 3 4 5 6 7 8 9 10 11 12 13 14 15 16 17 18 19 20 21 22 23 24 25 26 27 28 29 30
000
FTUS44 KHGX 212327
TAFGLS
TAF
KGLS 212327Z 2200/2224 16018KT 2SM BR VCSH BKN025
      TEMPO 2200/2204 SHRA BKN005
     FM220900 10007KT 3/4SM BR VCSH OVC004
     FM221300 12007KT 1/4SM FG VCSH OVC002
     FM221800 14013KT 4SM BR VCSH OVC010=

USA.gov is the U.S. government's official web portal to all federal, state and local government web resources and services.